Xenia, Illinois
Current Conditions -  °F | °C
As of 5:55 AM on Saturday 25 Oct 2014 (Local Time) from KFOA Reporting Station
Clear Clear  
Wind Chill: 13°   Ceiling: Unl
Heat Index: 13°   Visibility: 10mi
Dew Point: 12°   Wind: 5mph
Humidity: 91%   Direction: 220°SW
Pressure: 29.99"   Gusts: NA
Location:  38.64°N, 88.63°W
Report Text: KFOA 251055Z AUTO 22004KT 10SM CLR 13/12 A2999 RMK AO2 T01330119
Loading
Personal Weather Stations






























Interactive Weather Map
Tropical Storm Tracking
New forecast layout! Learn more

10-Day Weather Forecast

Advertisements
Track Severe Weather on mobile